Dades meteomassalio
Diari Summary for Febrer 12, 2017 Units:  Metric    English   Both
« Previous Day
Next Day »
Diari Semanal Mensual Anual Personalitzat
  Maxima: Minima: Mijana:
Temperatura: -17.8 °C -12.3 °C -11.1 °C
Rosada: -17.8 °C -13.7 °C -13.2 °C
Humitat: Humidity % 65 % 78 %
Velocitat del vent: 0 km/h 0 km/h 34.6 km/h
Racha vent: 0 km/h - -
Vent:- - ESE
Pressio: 0 hPa 34130.9 hPa -
Pluja: 0 mm    
Historical Graphs
 
 
Tabular Data for Febrer 12, 2017
Time Temperature Dew Point Pressure Wind Wind Speed Wind Gust Humidity Rainfall Rate (Hourly) solar Conditions
-17.8 °C -17.8 °C 0 hPa Calm     Humidity % 0 mm SolarRadiationWatts/m^2 W/m2 Conditions
00:01 -12.3 °C -13.2 °C 34256.2 hPa East 20.9 km/h 20.9 km/h 90 % 0 mm 0.0 W/m2 RA
00:06 -12.3 °C -13.1 °C 34256.2 hPa East 20.9 km/h 20.9 km/h 90 % 0 mm 0.0 W/m2 CLR
00:11 -12.2 °C -13.1 °C 34256.2 hPa East 11.9 km/h 11.9 km/h 90 % 0 mm 0.0 W/m2 CLR
00:16 -12.2 °C -13.1 °C 34256.2 hPa ESE 20.9 km/h 20.9 km/h 90 % 0 mm 0.0 W/m2 CLR
00:21 -12.1 °C -13.1 °C 34256.2 hPa East 20.9 km/h 20.9 km/h 89 % 0 mm 0.0 W/m2 CLR
00:26 -12.2 °C -13.1 °C 34256.2 hPa East 11.9 km/h 11.9 km/h 89 % 0 mm 0.0 W/m2 CLR
00:31 -12.2 °C -13.1 °C 34256.2 hPa Calm     89 % 0 mm 0.0 W/m2 CLR
00:36 -12.2 °C -13.2 °C 34256.2 hPa East 9 km/h 9 km/h 89 % 0 mm 0.0 W/m2 CLR
00:41 -12.2 °C -13.1 °C 34256.2 hPa East 11.9 km/h 11.9 km/h 89 % 0 mm 0.0 W/m2 CLR
00:46 -12.2 °C -13.2 °C 34256.2 hPa East 9 km/h 9 km/h 89 % 0 mm 0.0 W/m2 CLR
00:51 -12.2 °C -13.1 °C 34246 hPa East 23.8 km/h 23.8 km/h 90 % 0 mm 0.0 W/m2 CLR
00:56 -12.2 °C -13.2 °C 34246 hPa East 23.8 km/h 23.8 km/h 89 % 0 mm 0.0 W/m2 CLR
01:01 -12.1 °C -13.1 °C 34246 hPa East 23.8 km/h 23.8 km/h 89 % 0 mm 0.0 W/m2 CLR
01:06 -12.1 °C -13.1 °C 34246 hPa East 23.8 km/h 23.8 km/h 89 % 0 mm 0.0 W/m2 CLR
01:12 -12.1 °C -13.1 °C 34246 hPa East 20.9 km/h 20.9 km/h 89 % 0 mm 0.0 W/m2 CLR
01:17 -12.1 °C -13 °C 34246 hPa ESE 29.8 km/h 29.8 km/h 89 % 0 mm 0.0 W/m2 CLR
01:22 -12.1 °C -13 °C 34246 hPa ESE 29.8 km/h 29.8 km/h 89 % 0 mm 0.0 W/m2 CLR
01:27 -12.1 °C -13 °C 34246 hPa ESE 23.8 km/h 23.8 km/h 89 % 0 mm 0.0 W/m2 CLR
01:32 -12.1 °C -13 °C 34235.8 hPa ESE 32.8 km/h 32.8 km/h 89 % 0 mm 0.0 W/m2 CLR
01:37 -12 °C -13.1 °C 34235.8 hPa ESE 35.7 km/h 35.7 km/h 88 % 0 mm 0.0 W/m2 CLR
01:42 -11.9 °C -12.9 °C 34235.8 hPa ESE 31.1 km/h 31.1 km/h 88 % 0 mm 0.0 W/m2 CLR
01:47 -11.9 °C -13 °C 34235.8 hPa ESE 23.8 km/h 23.8 km/h 87 % 0 mm 0.0 W/m2 CLR
01:52 -11.8 °C -13 °C 34235.8 hPa ESE 29.8 km/h 29.8 km/h 87 % 0 mm 0.0 W/m2 CLR
01:57 -11.9 °C -13 °C 34235.8 hPa ESE 20.9 km/h 20.9 km/h 87 % 0 mm 0.0 W/m2 CLR
02:02 -11.9 °C -13 °C 34235.8 hPa ESE 29.8 km/h 29.8 km/h 87 % 0 mm 0.0 W/m2 CLR
02:07 -11.8 °C -13 °C 34235.8 hPa ESE 29.8 km/h 29.8 km/h 87 % 0 mm 0.0 W/m2 CLR
02:12 -11.9 °C -13 °C 34235.8 hPa East 28.5 km/h 28.5 km/h 87 % 0 mm 0.0 W/m2 CLR
02:17 -11.9 °C -13 °C 34222.3 hPa ESE 38.8 km/h 38.8 km/h 87 % 0 mm 0.0 W/m2 CLR
02:22 -11.9 °C -13 °C 34235.8 hPa ESE 29.8 km/h 29.8 km/h 87 % 0 mm 0.0 W/m2 CLR
02:27 -11.9 °C -13 °C 34235.8 hPa ESE 20.9 km/h 20.9 km/h 87 % 0 mm 0.0 W/m2 CLR
02:32 -11.8 °C -13 °C 34222.3 hPa ESE 29.8 km/h 29.8 km/h 87 % 0 mm 0.0 W/m2 CLR
02:37 -11.8 °C -13 °C 34222.3 hPa ESE 23.8 km/h 23.8 km/h 87 % 0 mm 0.0 W/m2 CLR
02:42 -11.8 °C -12.9 °C 34222.3 hPa ESE 35.7 km/h 35.7 km/h 87 % 0 mm 0.0 W/m2 CLR
02:47 -11.8 °C -13 °C 34222.3 hPa ESE 29.8 km/h 29.8 km/h 87 % 0 mm 0.0 W/m2 CLR
02:52 -11.8 °C -13 °C 34212.1 hPa ESE 29.8 km/h 29.8 km/h 87 % 0 mm 0.0 W/m2 CLR
02:57 -11.8 °C -13 °C 34222.3 hPa ESE 29.8 km/h 29.8 km/h 87 % 0 mm 0.0 W/m2 CLR
03:02 -11.8 °C -12.9 °C 34222.3 hPa ESE 41.7 km/h 41.7 km/h 87 % 0 mm 0.0 W/m2 CLR
03:07 -11.8 °C -13 °C 34222.3 hPa ESE 29.8 km/h 29.8 km/h 86 % 0 mm 0.0 W/m2 CLR
03:12 -11.8 °C -13 °C 34222.3 hPa ESE 44.7 km/h 44.7 km/h 86 % 0 mm 0.0 W/m2 CLR
03:17 -11.8 °C -13 °C 34222.3 hPa ESE 29.8 km/h 29.8 km/h 86 % 0 mm 0.0 W/m2 CLR
03:22 -11.8 °C -13 °C 34222.3 hPa ESE 29.8 km/h 29.8 km/h 86 % 0 mm 0.0 W/m2 CLR
03:27 -11.8 °C -13 °C 34212.1 hPa ESE 23.8 km/h 23.8 km/h 86 % 0 mm 0.0 W/m2 CLR
03:32 -11.8 °C -12.9 °C 34212.1 hPa ESE 33.6 km/h 33.6 km/h 87 % 0 mm 0.0 W/m2 CLR
03:37 -11.8 °C -13.1 °C 34212.1 hPa ESE 29.8 km/h 29.8 km/h 86 % 0 mm 0.0 W/m2 CLR
03:42 -11.8 °C -13 °C 34212.1 hPa ESE 29.8 km/h 29.8 km/h 87 % 0 mm 0.0 W/m2 CLR
03:47 -11.9 °C -13 °C 34212.1 hPa ESE 29.8 km/h 29.8 km/h 87 % 0 mm 0.0 W/m2 CLR
03:52 -11.9 °C -13 °C 34198.6 hPa ESE 29.8 km/h 29.8 km/h 87 % 0 mm 0.0 W/m2 CLR
03:57 -11.8 °C -13.1 °C 34198.6 hPa ESE 26.9 km/h 26.9 km/h 86 % 0 mm 0.0 W/m2 CLR
04:02 -11.9 °C -13 °C 34198.6 hPa ESE 35.7 km/h 35.7 km/h 87 % 0 mm 0.0 W/m2 CLR
04:07 -11.8 °C -13.1 °C 34198.6 hPa ESE 29.8 km/h 29.8 km/h 86 % 0 mm 0.0 W/m2 CLR
04:12 -11.8 °C -13.1 °C 34198.6 hPa ESE 33.6 km/h 33.6 km/h 86 % 0 mm 0.0 W/m2 CLR
04:17 -11.8 °C -13.1 °C 34188.4 hPa ESE 29.8 km/h 29.8 km/h 86 % 0 mm 0.0 W/m2 CLR
04:22 -11.8 °C -13.2 °C 34188.4 hPa ESE 46.7 km/h 46.7 km/h 85 % 0 mm 0.0 W/m2 CLR
04:27 -11.8 °C -13.1 °C 34198.6 hPa ESE 38.8 km/h 38.8 km/h 85 % 0 mm 0.0 W/m2 CLR
04:32 -11.8 °C -13.1 °C 34198.6 hPa ESE 29.8 km/h 29.8 km/h 85 % 0 mm 0.0 W/m2 CLR
04:37 -11.8 °C -13.2 °C 34198.6 hPa ESE 23.8 km/h 23.8 km/h 84 % 0 mm 0.0 W/m2 CLR
04:42 -11.7 °C -13.2 °C 34212.1 hPa ESE 36.2 km/h 36.2 km/h 84 % 0 mm 0.0 W/m2 CLR
04:47 -11.7 °C -13.2 °C 34212.1 hPa ESE 41.7 km/h 41.7 km/h 84 % 0 mm 0.0 W/m2 CLR
04:52 -11.7 °C -13.2 °C 34198.6 hPa ESE 26.9 km/h 26.9 km/h 84 % 0 mm 0.0 W/m2 CLR
04:57 -11.8 °C -13.1 °C 34198.6 hPa ESE 44.7 km/h 44.7 km/h 85 % 0 mm 0.0 W/m2 CLR
05:02 -11.8 °C -13.2 °C 34198.6 hPa ESE 29.8 km/h 29.8 km/h 85 % 0 mm 0.0 W/m2 CLR
05:07 -11.8 °C -13.1 °C 34198.6 hPa ESE 35.7 km/h 35.7 km/h 86 % 0 mm 0.0 W/m2 CLR
05:12 -11.8 °C -13 °C 34188.4 hPa ESE 41.7 km/h 41.7 km/h 86 % 0 mm 0.0 W/m2 CLR
05:17 -11.7 °C -13.1 °C 34198.6 hPa ESE 32.8 km/h 32.8 km/h 85 % 0 mm 0.0 W/m2 CLR
05:22 -11.7 °C -13 °C 34198.6 hPa ESE 35.7 km/h 35.7 km/h 86 % 0 mm 0.0 W/m2 CLR
05:27 -11.8 °C -13 °C 34198.6 hPa ESE 29.8 km/h 29.8 km/h 86 % 0 mm 0.0 W/m2 CLR
05:32 -11.8 °C -13 °C 34198.6 hPa ESE 29.8 km/h 29.8 km/h 86 % 0 mm 0.0 W/m2 CLR
05:37 -11.7 °C -13.1 °C 34198.6 hPa ESE 29.8 km/h 29.8 km/h 85 % 0 mm 0.0 W/m2 CLR
05:42 -11.8 °C -13.1 °C 34198.6 hPa ESE 29.8 km/h 29.8 km/h 85 % 0 mm 0.0 W/m2 CLR
05:47 -11.7 °C -13.1 °C 34198.6 hPa ESE 23.8 km/h 23.8 km/h 85 % 0 mm 0.0 W/m2 CLR
05:52 -11.7 °C -13.1 °C 34188.4 hPa ESE 29.8 km/h 29.8 km/h 85 % 0 mm 0.0 W/m2 CLR
05:57 -11.7 °C -13 °C 34188.4 hPa ESE 20.9 km/h 20.9 km/h 85 % 0 mm 0.0 W/m2 CLR
06:02 -11.7 °C -13.1 °C 34188.4 hPa ESE 12.9 km/h 15.6 km/h 85 % 0 mm 0.0 W/m2 CLR
06:07 -11.7 °C -13.1 °C 34188.4 hPa ESE 17.9 km/h 17.9 km/h 85 % 0 mm 0.0 W/m2 CLR
06:12 -11.7 °C -13.1 °C 34198.6 hPa ESE 20.9 km/h 20.9 km/h 85 % 0 mm 0.0 W/m2 CLR
06:17 -11.7 °C -13.1 °C 34188.4 hPa ESE 32.8 km/h 32.8 km/h 85 % 0 mm 0.0 W/m2 CLR
06:22 -11.7 °C -13.1 °C 34188.4 hPa ESE 38.8 km/h 38.8 km/h 85 % 0 mm 0.0 W/m2 CLR
06:27 -11.7 °C -13 °C 34188.4 hPa ESE 29.8 km/h 29.8 km/h 85 % 0 mm 0.0 W/m2 CLR
06:32 -11.7 °C -13.1 °C 34188.4 hPa ESE 29.8 km/h 29.8 km/h 85 % 0 mm 0.0 W/m2 CLR
06:37 -11.7 °C -13.1 °C 34188.4 hPa ESE 20.9 km/h 20.9 km/h 85 % 0 mm 0.0 W/m2 CLR
06:42 -11.7 °C -13.1 °C 34198.6 hPa ESE 23.8 km/h 23.8 km/h 85 % 0 mm 0.0 W/m2 CLR
06:47 -11.7 °C -13.2 °C 34198.6 hPa SE 23.8 km/h 23.8 km/h 84 % 0 mm 0.0 W/m2 CLR
06:52 -11.6 °C -13.1 °C 34212.1 hPa ESE 23.8 km/h 23.8 km/h 84 % 0 mm 0.0 W/m2 CLR
06:58 -11.6 °C -13.1 °C 34198.6 hPa SE 23.8 km/h 23.8 km/h 84 % 0 mm 0.0 W/m2 CLR
07:03 -11.6 °C -13.1 °C 34198.6 hPa ESE 20.9 km/h 20.9 km/h 84 % 0 mm 0.0 W/m2 CLR
07:08 -11.7 °C -13.1 °C 34198.6 hPa ESE 23.8 km/h 23.8 km/h 84 % 0 mm 0.0 W/m2 CLR
07:13 -11.7 °C -13.1 °C 34198.6 hPa ESE 17.9 km/h 17.9 km/h 84 % 0 mm 0.0 W/m2 CLR
07:18 -11.7 °C -13.1 °C 34198.6 hPa ESE 26.9 km/h 26.9 km/h 84 % 0 mm 0.0 W/m2 CLR
07:23 -11.6 °C -13.2 °C 34198.6 hPa ESE 17.9 km/h 17.9 km/h 83 % 0 mm 0.0 W/m2 CLR
07:28 -11.6 °C -13.2 °C 34188.4 hPa ESE 15 km/h 15 km/h 83 % 0 mm 0.0 W/m2 CLR
07:33 -11.6 °C -13.2 °C 34188.4 hPa ESE 23.8 km/h 23.8 km/h 83 % 0 mm 0.0 W/m2 CLR
07:38 -11.6 °C -13.2 °C 34198.6 hPa ESE 26.9 km/h 26.9 km/h 83 % 0 mm 0.0 W/m2 CLR
07:43 -11.6 °C -13.2 °C 34198.6 hPa ESE 20.9 km/h 20.9 km/h 83 % 0 mm 0.0 W/m2 CLR
07:48 -11.6 °C -13.1 °C 34198.6 hPa ESE 29.8 km/h 29.8 km/h 83 % 0 mm 0.0 W/m2 OVC
07:53 -11.6 °C -13.1 °C 34198.6 hPa ESE 23.3 km/h 23.3 km/h 83 % 0 mm 0.0 W/m2 OVC
07:58 -11.6 °C -13.1 °C 34198.6 hPa ESE 29.8 km/h 29.8 km/h 83 % 0 mm 0.0 W/m2 OVC
08:03 -11.6 °C -13.1 °C 34198.6 hPa ESE 35.7 km/h 35.7 km/h 83 % 0 mm 0.0 W/m2 OVC
08:08 -11.6 °C -13.2 °C 34198.6 hPa ESE 29.8 km/h 29.8 km/h 82 % 0 mm 5.0 W/m2 OVC
08:13 -11.5 °C -13.2 °C 34198.6 hPa ESE 44.7 km/h 44.7 km/h 82 % 0 mm 9.0 W/m2 BKN
08:18 -11.5 °C -13.2 °C 34198.6 hPa ESE 38.8 km/h 38.8 km/h 82 % 0 mm 16.0 W/m2 BKN
08:23 -11.5 °C -13.2 °C 34198.6 hPa ESE 25.9 km/h 25.9 km/h 81 % 0 mm 19.0 W/m2 BKN
08:28 -11.5 °C -13.3 °C 34198.6 hPa ESE 26.9 km/h 26.9 km/h 81 % 0 mm 23.0 W/m2 BKN
08:33 -11.5 °C -13.3 °C 34198.6 hPa ESE 38.8 km/h 38.8 km/h 81 % 0 mm 26.0 W/m2 BKN
08:38 -11.5 °C -13.3 °C 34198.6 hPa ESE 29.8 km/h 29.8 km/h 81 % 0 mm 32.0 W/m2 BKN
08:43 -11.6 °C -13.3 °C 34198.6 hPa ESE 35.7 km/h 35.7 km/h 81 % 0 mm 42.0 W/m2 BKN
08:48 -11.6 °C -13.3 °C 34198.6 hPa ESE 32.8 km/h 32.8 km/h 81 % 0 mm 49.0 W/m2 SCT
08:53 -11.6 °C -13.2 °C 34198.6 hPa ESE 29.8 km/h 29.8 km/h 82 % 0 mm 58.0 W/m2 SCT
08:58 -11.5 °C -13.2 °C 34198.6 hPa ESE 35.7 km/h 35.7 km/h 81 % 0 mm 67.0 W/m2 SCT
09:03 -11.5 °C -13.2 °C 34198.6 hPa ESE 29.8 km/h 29.8 km/h 81 % 0 mm 72.0 W/m2 SCT
09:08 -11.5 °C -13.2 °C 34212.1 hPa ESE 26.9 km/h 26.9 km/h 81 % 0 mm 74.0 W/m2 FEW
09:13 -11.5 °C -13.1 °C 34212.1 hPa ESE 29.8 km/h 29.8 km/h 82 % 0 mm 81.0 W/m2 FEW
09:18 -11.4 °C -13.2 °C 34212.1 hPa ESE 20.9 km/h 20.9 km/h 81 % 0 mm 88.0 W/m2 FEW
09:23 -11.4 °C -13.2 °C 34222.3 hPa ESE 31.1 km/h 31.1 km/h 81 % 0 mm 86.0 W/m2 FEW
09:28 -11.3 °C -13.2 °C 34222.3 hPa ESE 23.8 km/h 23.8 km/h 80 % 0 mm 100.0 W/m2 CLR
09:33 -11.3 °C -13.2 °C 34212.1 hPa ESE 26.9 km/h 26.9 km/h 80 % 0 mm 114.0 W/m2 CLR
09:38 -11.3 °C -13.2 °C 34212.1 hPa ESE 26.9 km/h 26.9 km/h 80 % 0 mm 130.0 W/m2 CLR
09:43 -11.2 °C -13.2 °C 34212.1 hPa ESE 38.8 km/h 38.8 km/h 79 % 0 mm 146.0 W/m2 CLR
09:48 -11.2 °C -13.2 °C 34212.1 hPa ESE 26.9 km/h 26.9 km/h 79 % 0 mm 155.0 W/m2 CLR
09:53 -11.2 °C -13.2 °C 34212.1 hPa ESE 32.8 km/h 32.8 km/h 78 % 0 mm 149.0 W/m2 CLR
09:58 -11.2 °C -13.2 °C 34212.1 hPa ESE 29.8 km/h 29.8 km/h 78 % 0 mm 139.0 W/m2 CLR
10:03 -11.1 °C -13.2 °C 34212.1 hPa ESE 38.8 km/h 38.8 km/h 78 % 0 mm 160.0 W/m2 CLR
10:08 -11.1 °C -13.2 °C 34212.1 hPa ESE 38.8 km/h 38.8 km/h 78 % 0 mm 160.0 W/m2 CLR
10:13 -11 °C -13.2 °C 34212.1 hPa ESE 38.8 km/h 38.8 km/h 77 % 0 mm 162.0 W/m2 CLR
10:18 -11 °C -13.2 °C 34212.1 hPa ESE 35.7 km/h 35.7 km/h 77 % 0 mm 178.0 W/m2 CLR
10:23 -11 °C -13.2 °C 34212.1 hPa ESE 36.2 km/h 36.2 km/h 77 % 0 mm 199.0 W/m2 CLR
10:28 -10.9 °C -13.2 °C 34198.6 hPa ESE 50.7 km/h 50.7 km/h 76 % 0 mm 202.0 W/m2 CLR
10:33 -10.9 °C -13.2 °C 34212.1 hPa ESE 47.6 km/h 47.6 km/h 76 % 0 mm 195.0 W/m2 CLR
10:38 -10.9 °C -13.2 °C 34212.1 hPa ESE 26.9 km/h 26.9 km/h 76 % 0 mm 176.0 W/m2 CLR
10:43 -10.8 °C -13.2 °C 34212.1 hPa ESE 38.8 km/h 38.8 km/h 75 % 0 mm 160.0 W/m2 CLR
10:48 -10.8 °C -13.3 °C 34212.1 hPa ESE 50.7 km/h 50.7 km/h 74 % 0 mm 160.0 W/m2 CLR
10:53 -10.8 °C -13.1 °C 34212.1 hPa ESE 33.6 km/h 33.6 km/h 76 % 0 mm 130.0 W/m2 CLR
10:58 -10.8 °C -13.2 °C 34212.1 hPa SE 17.9 km/h 17.9 km/h 75 % 0 mm 197.0 W/m2 CLR
11:03 -10.7 °C -13.2 °C 34212.1 hPa SE 38.8 km/h 38.8 km/h 74 % 0 mm 257.0 W/m2 CLR
11:08 -10.7 °C -13.3 °C 34212.1 hPa SE 38.8 km/h 38.8 km/h 73 % 0 mm 341.0 W/m2 CLR
11:13 -10.6 °C -13.4 °C 34222.3 hPa ESE 44.7 km/h 44.7 km/h 71 % 0 mm 318.0 W/m2 CLR
11:18 -10.6 °C -13.3 °C 34222.3 hPa SE 41.7 km/h 41.7 km/h 72 % 0 mm 313.0 W/m2 CLR
11:23 -10.6 °C -13.3 °C 34222.3 hPa SE 35.7 km/h 35.7 km/h 72 % 0 mm 216.0 W/m2 CLR
11:28 -10.6 °C -13.3 °C 34222.3 hPa ESE 38.8 km/h 38.8 km/h 72 % 0 mm 239.0 W/m2 CLR
11:33 -10.6 °C -13.2 °C 34222.3 hPa SE 26.9 km/h 26.9 km/h 73 % 0 mm 237.0 W/m2 CLR
11:38 -10.6 °C -13.2 °C 34235.8 hPa SE 38.8 km/h 38.8 km/h 73 % 0 mm 253.0 W/m2 CLR
11:43 -10.5 °C -13.1 °C 34235.8 hPa SE 31.1 km/h 31.1 km/h 73 % 0 mm 243.0 W/m2 CLR
11:48 -10.4 °C -13.2 °C 34222.3 hPa ESE 41.7 km/h 41.7 km/h 72 % 0 mm 573.0 W/m2 CLR
11:53 -10.4 °C -13.2 °C 34222.3 hPa ESE 41.7 km/h 41.7 km/h 72 % 0 mm 448.0 W/m2 CLR
11:58 -10.4 °C -13.1 °C 34212.1 hPa ESE 38.8 km/h 38.8 km/h 72 % 0 mm 362.0 W/m2 CLR
12:03 -10.4 °C -13.2 °C 34212.1 hPa ESE 47.6 km/h 47.6 km/h 71 % 0 mm 420.0 W/m2 CLR
12:08 -10.3 °C -13.1 °C 34212.1 hPa ESE 32.8 km/h 32.8 km/h 72 % 0 mm 406.0 W/m2 CLR
12:13 -10.3 °C -13.2 °C 34212.1 hPa ESE 38.8 km/h 38.8 km/h 71 % 0 mm 396.0 W/m2 CLR
12:18 -10.3 °C -13.2 °C 34212.1 hPa ESE 32.8 km/h 32.8 km/h 71 % 0 mm 415.0 W/m2 CLR
12:23 -10.3 °C -13.3 °C 34212.1 hPa ESE 29.8 km/h 29.8 km/h 70 % 0 mm 424.0 W/m2 CLR
12:28 -10.2 °C -13.2 °C 34212.1 hPa ESE 38.8 km/h 38.8 km/h 70 % 0 mm 432.0 W/m2 CLR
12:33 -10.2 °C -13.1 °C 34212.1 hPa SE 33.6 km/h 33.6 km/h 71 % 0 mm 441.0 W/m2 CLR
12:39 -10.2 °C -13.3 °C 34212.1 hPa SE 59.5 km/h 59.5 km/h 69 % 0 mm 499.0 W/m2 CLR
12:44 -10.2 °C -13.2 °C 34212.1 hPa SE 36.2 km/h 36.2 km/h 70 % 0 mm 406.0 W/m2 CLR
12:49 -10.2 °C -13.3 °C 34198.6 hPa SE 38.8 km/h 38.8 km/h 69 % 0 mm 515.0 W/m2 CLR
12:54 -10.1 °C -13.3 °C 34212.1 hPa SE 47.6 km/h 47.6 km/h 68 % 0 mm 575.0 W/m2 CLR
12:59 -10.1 °C -13.4 °C 34212.1 hPa SE 56.6 km/h 56.6 km/h 67 % 0 mm 295.0 W/m2 CLR
13:04 -10.2 °C -13.4 °C 34198.6 hPa SE 47.6 km/h 47.6 km/h 68 % 0 mm 369.0 W/m2 CLR
13:09 -10.1 °C -13.2 °C 34212.1 hPa SE 56.6 km/h 56.6 km/h 69 % 0 mm 443.0 W/m2 CLR
13:14 -10.1 °C -13.3 °C 34212.1 hPa SE 32.8 km/h 32.8 km/h 68 % 0 mm 471.0 W/m2 CLR
13:19 -10.1 °C -13.3 °C 34212.1 hPa SE 50.7 km/h 50.7 km/h 68 % 0 mm 436.0 W/m2 CLR
13:24 -10.1 °C -13.3 °C 34198.6 hPa SE 44.7 km/h 44.7 km/h 68 % 0 mm 329.0 W/m2 CLR
13:29 -10.1 °C -13.4 °C 34198.6 hPa ESE 53.6 km/h 53.6 km/h 67 % 0 mm 334.0 W/m2 CLR
13:34 -10.1 °C -13.2 °C 34198.6 hPa ESE 35.7 km/h 35.7 km/h 69 % 0 mm 413.0 W/m2 CLR
13:39 -10.1 °C -13.6 °C 34198.6 hPa SE 68.6 km/h 68.6 km/h 66 % 0 mm 366.0 W/m2 CLR
13:44 -10.2 °C -13.5 °C 34188.4 hPa SE 47.6 km/h 47.6 km/h 67 % 0 mm 301.0 W/m2 CLR
13:49 -10.2 °C -13.3 °C 34188.4 hPa SE 35.7 km/h 35.7 km/h 69 % 0 mm 281.0 W/m2 CLR
13:54 -10.2 °C -13.3 °C 34188.4 hPa ESE 41.7 km/h 41.7 km/h 69 % 0 mm 265.0 W/m2 CLR
13:59 -10.2 °C -13.3 °C 34188.4 hPa SE 41.7 km/h 41.7 km/h 69 % 0 mm 406.0 W/m2 CLR
14:04 -10.2 °C -13.3 °C 34178.3 hPa SE 50.7 km/h 50.7 km/h 69 % 0 mm 497.0 W/m2 CLR
14:09 -10.2 °C -13.3 °C 34178.3 hPa ESE 53.6 km/h 53.6 km/h 69 % 0 mm 517.0 W/m2 CLR
14:14 -10.1 °C -13.2 °C 34178.3 hPa ESE 56.6 km/h 56.6 km/h 69 % 0 mm 543.0 W/m2 CLR
14:19 -9.9 °C -13.2 °C 34164.7 hPa ESE 41.7 km/h 41.7 km/h 68 % 0 mm 582.0 W/m2 CLR
14:24 -9.9 °C -13.1 °C 34164.7 hPa ESE 50.7 km/h 50.7 km/h 69 % 0 mm 654.0 W/m2 CLR
14:29 -9.9 °C -13.1 °C 34164.7 hPa SE 44.7 km/h 44.7 km/h 68 % 0 mm 619.0 W/m2 CLR
14:34 -9.9 °C -13.2 °C 34154.6 hPa ESE 44.7 km/h 44.7 km/h 67 % 0 mm 441.0 W/m2 CLR
14:39 -9.9 °C -13.2 °C 34164.7 hPa ESE 53.6 km/h 53.6 km/h 68 % 0 mm 380.0 W/m2 CLR
14:44 -9.9 °C -13.2 °C 34164.7 hPa ESE 50.7 km/h 50.7 km/h 68 % 0 mm 473.0 W/m2 CLR
14:49 -9.8 °C -13.1 °C 34164.7 hPa ESE 46.7 km/h 46.7 km/h 68 % 0 mm 615.0 W/m2 CLR
14:54 -9.9 °C -13.2 °C 34164.7 hPa SE 29.8 km/h 29.8 km/h 67 % 0 mm 461.0 W/m2 CLR
14:59 -9.8 °C -13.2 °C 34164.7 hPa SE 44.7 km/h 44.7 km/h 67 % 0 mm 492.0 W/m2 CLR
15:04 -9.8 °C -13.2 °C 34164.7 hPa SE 41.4 km/h 41.4 km/h 67 % 0 mm 450.0 W/m2 CLR
15:09 -9.9 °C -13.2 °C 34164.7 hPa SE 50.7 km/h 50.7 km/h 67 % 0 mm 452.0 W/m2 CLR
15:14 -9.9 °C -13.5 °C 34164.7 hPa ESE 38.8 km/h 38.8 km/h 65 % 0 mm 536.0 W/m2 CLR
15:19 -9.9 °C -13.4 °C 34154.6 hPa ESE 53.6 km/h 53.6 km/h 66 % 0 mm 490.0 W/m2 CLR
15:24 -9.8 °C -13.3 °C 34154.6 hPa ESE 47.6 km/h 47.6 km/h 66 % 0 mm 585.0 W/m2 CLR
15:29 -9.8 °C -13.2 °C 34154.6 hPa SE 29.8 km/h 29.8 km/h 67 % 0 mm 455.0 W/m2 CLR
15:34 -9.8 °C -13.2 °C 34154.6 hPa ESE 35.7 km/h 35.7 km/h 67 % 0 mm 292.0 W/m2 CLR
15:39 -10 °C -13.6 °C 34164.7 hPa ESE 64.7 km/h 64.7 km/h 65 % 0 mm 260.0 W/m2 CLR
15:44 -10.2 °C -13.5 °C 34154.6 hPa ESE 33.6 km/h 33.6 km/h 67 % 0 mm 193.0 W/m2 CLR
15:49 -10.2 °C -13.4 °C 34154.6 hPa ESE 41.7 km/h 41.7 km/h 68 % 0 mm 213.0 W/m2 CLR
15:54 -10.3 °C -13.4 °C 34154.6 hPa ESE 53.6 km/h 53.6 km/h 69 % 0 mm 167.0 W/m2 CLR
15:59 -10.4 °C -13.3 °C 34154.6 hPa ESE 41.4 km/h 41.4 km/h 70 % 0 mm 174.0 W/m2 CLR
16:04 -10.4 °C -13.4 °C 34154.6 hPa East 44.7 km/h 44.7 km/h 70 % 0 mm 192.0 W/m2 CLR
16:09 -10.4 °C -13.4 °C 34154.6 hPa ESE 47.6 km/h 47.6 km/h 70 % 0 mm 209.0 W/m2 CLR
16:14 -10.4 °C -13.4 °C 34144.4 hPa ESE 53.6 km/h 53.6 km/h 70 % 0 mm 239.0 W/m2 CLR
16:19 -10.4 °C -13.3 °C 34144.4 hPa ESE 50.7 km/h 50.7 km/h 71 % 0 mm 262.0 W/m2 CLR
16:24 -10.4 °C -13.3 °C 34144.4 hPa ESE 53.6 km/h 53.6 km/h 70 % 0 mm 287.0 W/m2 CLR
16:29 -10.4 °C -13.4 °C 34144.4 hPa ESE 50.7 km/h 50.7 km/h 70 % 0 mm 274.0 W/m2 CLR
16:34 -10.3 °C -13.3 °C 34144.4 hPa ESE 44.7 km/h 44.7 km/h 70 % 0 mm 258.0 W/m2 CLR
16:39 -10.4 °C -13.4 °C 34144.4 hPa ESE 53.6 km/h 53.6 km/h 70 % 0 mm 158.0 W/m2 CLR
16:44 -10.4 °C -13.4 °C 34144.4 hPa ESE 59.5 km/h 59.5 km/h 70 % 0 mm 169.0 W/m2 CLR
16:49 -10.5 °C -13.4 °C 34130.9 hPa SE 51.8 km/h 51.8 km/h 71 % 0 mm 114.0 W/m2 CLR
16:54 -10.6 °C -13.4 °C 34144.4 hPa ESE 56.6 km/h 56.6 km/h 71 % 0 mm 123.0 W/m2 CLR
16:59 -10.6 °C -13.4 °C 34144.4 hPa ESE 38.8 km/h 38.8 km/h 71 % 0 mm 121.0 W/m2 CLR
17:04 -10.6 °C -13.3 °C 34144.4 hPa SE 35.7 km/h 35.7 km/h 72 % 0 mm 118.0 W/m2 CLR
17:09 -10.6 °C -13.3 °C 34154.6 hPa SE 38.8 km/h 38.8 km/h 72 % 0 mm 130.0 W/m2 CLR
17:14 -10.6 °C -13.5 °C 34154.6 hPa SSE 50.7 km/h 50.7 km/h 70 % 0 mm 86.0 W/m2 CLR
17:20 -10.6 °C -13.6 °C 34164.7 hPa SSE 44.7 km/h 44.7 km/h 70 % 0 mm 72.0 W/m2 CLR
17:25 -10.6 °C -13.6 °C 34164.7 hPa SSE 53.6 km/h 53.6 km/h 70 % 0 mm 56.0 W/m2 FEW
17:30 -10.6 °C -13.4 °C 34154.6 hPa SE 29.8 km/h 29.8 km/h 71 % 0 mm 56.0 W/m2 SCT
17:35 -10.7 °C -13.4 °C 34164.7 hPa SE 35.7 km/h 35.7 km/h 72 % 0 mm 53.0 W/m2 SCT
17:40 -10.7 °C -13.3 °C 34164.7 hPa SE 23.8 km/h 23.8 km/h 73 % 0 mm 58.0 W/m2 SCT
17:45 -10.7 °C -13.4 °C 34164.7 hPa SE 33.6 km/h 33.6 km/h 72 % 0 mm 49.0 W/m2 SCT
17:50 -10.7 °C -13.3 °C 34154.6 hPa SE 32.8 km/h 32.8 km/h 73 % 0 mm 49.0 W/m2 SCT
17:55 -10.7 °C -13.3 °C 34164.7 hPa ESE 32.8 km/h 32.8 km/h 73 % 0 mm 35.0 W/m2 BKN
18:00 -10.7 °C -13.4 °C 34164.7 hPa SE 35.7 km/h 35.7 km/h 73 % 0 mm 35.0 W/m2 BKN
18:05 -10.7 °C -13.5 °C 34164.7 hPa SE 38.8 km/h 38.8 km/h 72 % 0 mm 25.0 W/m2 BKN
18:10 -10.7 °C -13.5 °C 34164.7 hPa SE 29.8 km/h 29.8 km/h 72 % 0 mm 23.0 W/m2 BKN
18:15 -10.8 °C -13.5 °C 34164.7 hPa ESE 44.7 km/h 44.7 km/h 72 % 0 mm 14.0 W/m2 BKN
18:20 -10.8 °C -13.4 °C 34164.7 hPa ESE 50.7 km/h 50.7 km/h 73 % 0 mm 12.0 W/m2 BKN
18:25 -10.8 °C -13.3 °C 34164.7 hPa ESE 32.8 km/h 32.8 km/h 74 % 0 mm 9.0 W/m2 BKN
18:30 -10.9 °C -13.4 °C 34164.7 hPa ESE 36.2 km/h 36.2 km/h 74 % 0 mm 0.0 W/m2 OVC
18:35 -10.9 °C -13.4 °C 34164.7 hPa ESE 56.6 km/h 56.6 km/h 74 % 0 mm 0.0 W/m2 OVC
18:40 -10.9 °C -13.4 °C 34164.7 hPa ESE 32.8 km/h 32.8 km/h 74 % 0 mm 0.0 W/m2 OVC
18:45 -10.9 °C -13.4 °C 34164.7 hPa ESE 47.6 km/h 47.6 km/h 74 % 0 mm 0.0 W/m2 CLR
18:50 -10.9 °C -13.4 °C 34164.7 hPa ESE 59.5 km/h 59.5 km/h 74 % 0 mm 0.0 W/m2 CLR
18:55 -10.9 °C -13.4 °C 34164.7 hPa SE 56.6 km/h 56.6 km/h 74 % 0 mm 0.0 W/m2 CLR
19:00 -10.9 °C -13.3 °C 34164.7 hPa SE 47.6 km/h 47.6 km/h 75 % 0 mm 0.0 W/m2 CLR
19:05 -10.9 °C -13.4 °C 34178.3 hPa SE 50.7 km/h 50.7 km/h 75 % 0 mm 0.0 W/m2 CLR
19:10 -10.9 °C -13.4 °C 34178.3 hPa SE 41.7 km/h 41.7 km/h 75 % 0 mm 0.0 W/m2 CLR
19:15 -11 °C -13.4 °C 34178.3 hPa SE 44.7 km/h 44.7 km/h 75 % 0 mm 0.0 W/m2 CLR
19:20 -10.9 °C -13.4 °C 34188.4 hPa SE 47.6 km/h 47.6 km/h 75 % 0 mm 0.0 W/m2 CLR
19:25 -11 °C -13.4 °C 34188.4 hPa SE 44.1 km/h 44.1 km/h 75 % 0 mm 0.0 W/m2 CLR
19:30 -10.9 °C -13.4 °C 34188.4 hPa SE 47.6 km/h 47.6 km/h 74 % 0 mm 0.0 W/m2 CLR
19:35 -10.9 °C -13.4 °C 34178.3 hPa SE 44.7 km/h 44.7 km/h 74 % 0 mm 0.0 W/m2 CLR
19:40 -10.9 °C -13.4 °C 34188.4 hPa SE 50.7 km/h 50.7 km/h 74 % 0 mm 0.0 W/m2 CLR
19:45 -11 °C -13.4 °C 34188.4 hPa SE 47.6 km/h 47.6 km/h 75 % 0 mm 0.0 W/m2 CLR
19:50 -11 °C -13.4 °C 34188.4 hPa SE 49.2 km/h 49.2 km/h 75 % 0 mm 0.0 W/m2 CLR
19:55 -11 °C -13.4 °C 34188.4 hPa SE 65.5 km/h 65.5 km/h 75 % 0 mm 0.0 W/m2 CLR
20:00 -10.9 °C -13.4 °C 34198.6 hPa SE 50.7 km/h 50.7 km/h 75 % 0 mm 0.0 W/m2 CLR
20:05 -10.9 °C -13.4 °C 34198.6 hPa SE 50.7 km/h 50.7 km/h 75 % 0 mm 0.0 W/m2 CLR
20:10 -11 °C -13.4 °C 34198.6 hPa SE 38.8 km/h 38.8 km/h 75 % 0 mm 0.0 W/m2 CLR
20:15 -11 °C -13.4 °C 34198.6 hPa SE 32.8 km/h 32.8 km/h 75 % 0 mm 0.0 W/m2 CLR
20:20 -10.9 °C -13.4 °C 34198.6 hPa SE 44.7 km/h 44.7 km/h 75 % 0 mm 0.0 W/m2 CLR
20:25 -10.9 °C -13.4 °C 34212.1 hPa SE 47.6 km/h 47.6 km/h 74 % 0 mm 0.0 W/m2 CLR
20:30 -10.9 °C -13.3 °C 34212.1 hPa SE 36.2 km/h 36.2 km/h 75 % 0 mm 0.0 W/m2 CLR
20:35 -10.9 °C -13.3 °C 34198.6 hPa ESE 35.7 km/h 35.7 km/h 75 % 0 mm 0.0 W/m2 CLR
20:40 -10.9 °C -13.4 °C 34198.6 hPa ESE 38.8 km/h 38.8 km/h 75 % 0 mm 0.0 W/m2 CLR
20:45 -11 °C -13.4 °C 34198.6 hPa SE 35.7 km/h 35.7 km/h 75 % 0 mm 0.0 W/m2 CLR
20:50 -11 °C -13.3 °C 34198.6 hPa SE 32.8 km/h 32.8 km/h 76 % 0 mm 0.0 W/m2 CLR
20:55 -11 °C -13.2 °C 34198.6 hPa ESE 35.7 km/h 35.7 km/h 77 % 0 mm 0.0 W/m2 CLR
21:00 -11.1 °C -13.2 °C 34198.6 hPa ESE 29.8 km/h 29.8 km/h 77 % 0 mm 0.0 W/m2 CLR
21:05 -11.1 °C -13.2 °C 34198.6 hPa ESE 26.9 km/h 26.9 km/h 78 % 0 mm 0.0 W/m2 CLR
21:15 -11.2 °C -13.1 °C 34198.6 hPa East 26.9 km/h 26.9 km/h 79 % 0 mm 0.0 W/m2 CLR
21:20 -11.1 °C -13.1 °C 34198.6 hPa East 29.8 km/h 29.8 km/h 79 % 0 mm 0.0 W/m2 CLR
21:25 -11.1 °C -13.1 °C 34198.6 hPa ESE 32.8 km/h 32.8 km/h 79 % 0 mm 0.0 W/m2 CLR
21:30 -11.1 °C -13.1 °C 34198.6 hPa ESE 23.8 km/h 23.8 km/h 79 % 0 mm 0.0 W/m2 CLR
21:35 -11.1 °C -13.1 °C 34188.4 hPa ESE 23.8 km/h 23.8 km/h 79 % 0 mm 0.0 W/m2 CLR
21:40 -11.2 °C -13.1 °C 34188.4 hPa East 15 km/h 15 km/h 79 % 0 mm 0.0 W/m2 CLR
21:45 -11.2 °C -13.2 °C 34188.4 hPa ESE 17.9 km/h 17.9 km/h 79 % 0 mm 0.0 W/m2 CLR
21:50 -11.2 °C -13.2 °C 34188.4 hPa ESE 23.8 km/h 23.8 km/h 79 % 0 mm 0.0 W/m2 CLR
21:55 -11.2 °C -13.2 °C 34198.6 hPa East 17.9 km/h 17.9 km/h 79 % 0 mm 0.0 W/m2 CLR
22:00 -11.2 °C -13.2 °C 34198.6 hPa SE 15 km/h 15 km/h 78 % 0 mm 0.0 W/m2 CLR
22:05 -11.2 °C -13.2 °C 34198.6 hPa ESE 12.9 km/h 12.9 km/h 78 % 0 mm 0.0 W/m2 CLR
22:10 -11.1 °C -13.3 °C 34198.6 hPa SE 15 km/h 15 km/h 77 % 0 mm 0.0 W/m2 CLR
22:15 -11.1 °C -13.4 °C 34198.6 hPa SE 23.8 km/h 23.8 km/h 76 % 0 mm 0.0 W/m2 CLR
22:20 -11.1 °C -13.4 °C 34198.6 hPa SE 23.8 km/h 23.8 km/h 75 % 0 mm 0.0 W/m2 CLR
22:25 -11 °C -13.5 °C 34198.6 hPa SE 32.8 km/h 32.8 km/h 74 % 0 mm 0.0 W/m2 CLR
22:30 -10.9 °C -13.6 °C 34198.6 hPa SE 20.9 km/h 20.9 km/h 73 % 0 mm 0.0 W/m2 CLR
22:35 -11 °C -13.6 °C 34198.6 hPa SE 25.9 km/h 25.9 km/h 73 % 0 mm 0.0 W/m2 CLR
22:40 -10.9 °C -13.6 °C 34212.1 hPa SSE 29.8 km/h 29.8 km/h 73 % 0 mm 0.0 W/m2 CLR
22:45 -10.9 °C -13.6 °C 34198.6 hPa SSE 32.8 km/h 32.8 km/h 73 % 0 mm 0.0 W/m2 CLR
22:50 -10.9 °C -13.7 °C 34198.6 hPa SSE 50.7 km/h 50.7 km/h 72 % 0 mm 0.0 W/m2 CLR
22:55 -10.9 °C -13.6 °C 34198.6 hPa SSE 32.8 km/h 32.8 km/h 72 % 0 mm 0.0 W/m2 CLR
23:00 -10.9 °C -13.6 °C 34198.6 hPa SE 26.9 km/h 26.9 km/h 72 % 0 mm 0.0 W/m2 CLR
23:05 -10.9 °C -13.6 °C 34198.6 hPa SE 20.9 km/h 20.9 km/h 73 % 0 mm 0.0 W/m2 CLR
23:10 -11.1 °C -13.7 °C 34198.6 hPa SE 15.6 km/h 15.6 km/h 73 % 0 mm 0.0 W/m2 CLR
23:15 -11.1 °C -13.6 °C 34198.6 hPa ESE 12.9 km/h 12.9 km/h 74 % 0 mm 0.0 W/m2 CLR
23:20 -11.2 °C -13.7 °C 34198.6 hPa ESE 17.9 km/h 17.9 km/h 74 % 0 mm 0.0 W/m2 CLR
23:25 -11.1 °C -13.6 °C 34188.4 hPa ESE 20.9 km/h 20.9 km/h 74 % 0 mm 0.0 W/m2 CLR
23:30 -11.1 °C -13.5 °C 34188.4 hPa ESE 38.8 km/h 38.8 km/h 75 % 0 mm 0.0 W/m2 CLR
23:35 -11.1 °C -13.5 °C 34198.6 hPa SE 32.8 km/h 32.8 km/h 75 % 0 mm 0.0 W/m2 CLR
23:40 -11.1 °C -13.4 °C 34198.6 hPa ESE 33.6 km/h 33.6 km/h 76 % 0 mm 0.0 W/m2 CLR
23:45 -11.1 °C -13.4 °C 34198.6 hPa SE 32.8 km/h 32.8 km/h 76 % 0 mm 0.0 W/m2 CLR
23:50 -11.1 °C -13.4 °C 34198.6 hPa SE 29.8 km/h 29.8 km/h 76 % 0 mm 0.0 W/m2 CLR
23:55 -11.2 °C -13.3 °C 34198.6 hPa SE 35.7 km/h 35.7 km/h 77 % 0 mm 0.0 W/m2 CLR
Lo Temps de Massalio
Compliments of Weather Underground - 1.25 mb